Time;durP1;ratioP1;P1;durP2;ratioP2;P2;SDS_P1;SDS_P2;PMS_P1;PMS_P2;Temp;Humidity;BMP_temperature;BMP_pressure;BME280_temperature;BME280_humidity;BME280_pressure;Samples;Min_cycle;Max_cycle;Signal;HPM_P1;HPM_P2
2022/08/02 00:01:38;;;;;;;;;;;;;;;29.92;39.97;100522.18;105240;1300;61272;-80
2022/08/02 00:04:03;;;;;;;;;;;;;;;29.91;40.04;100518.20;105371;1300;61328;-80
2022/08/02 00:06:29;;;;;;;;;;;;;;;29.91;39.97;100520.98;105344;1299;61258;-80
2022/08/02 00:08:54;;;;;;;;;;;;;;;29.91;40.09;100516.48;105325;1300;61300;-80
2022/08/02 00:11:20;;;;;;;;;;;;;;;29.91;40.11;100519.91;105174;1299;71508;-80
2022/08/02 00:13:46;;;;;;;;;;;;;;;29.91;40.11;100517.94;105354;1299;62453;-80
2022/08/02 00:16:12;;;;;;;;;;;;;;;29.90;40.05;100521.59;105214;1300;61984;-80
2022/08/02 00:18:38;;;;;;;;;;;;;;;29.90;40.00;100525.42;105358;1297;61236;-81
2022/08/02 00:21:03;;;;;;;;;;;;;;;29.90;40.04;100524.16;105269;1300;61202;-81
2022/08/02 00:23:47;;;;;;;;;;;;;;;29.90;40.07;100526.92;105279;1300;73381;-81
2022/08/02 00:26:12;;;;;;;;;;;;;;;29.90;40.08;100525.63;105242;1298;61352;-81
2022/08/02 00:28:39;;;;;;;;;;;;;;;29.90;39.92;100525.64;105276;1299;61356;-81
2022/08/02 00:31:04;;;;;;;;;;;;;;;29.90;40.21;100527.30;105267;1300;61213;-81
2022/08/02 00:33:29;;;;;;;;;;;;;;;29.89;40.01;100529.88;105262;1300;61297;-81
2022/08/02 00:35:55;;;;;;;;;;;;;;;29.89;40.04;100532.95;105326;1300;61247;-81
2022/08/02 00:38:20;;;;;;;;;;;;;;;29.89;40.01;100534.61;105374;1299;61262;-81
2022/08/02 00:40:46;;;;;;;;;;;;;;;29.89;40.04;100532.48;105364;1298;61393;-81
2022/08/02 00:43:12;;;;;;;;;;;;;;;29.89;40.10;100527.94;105387;1298;61245;-81
2022/08/02 00:45:38;;;;;;;;;;;;;;;29.89;39.97;100526.30;105298;1300;61307;-81
2022/08/02 00:48:03;;;;;;;;;;;;;;;29.89;39.88;100522.70;105274;1300;61300;-81
2022/08/02 00:50:29;;;;;;;;;;;;;;;29.88;39.99;100520.73;105367;1300;61245;-81
2022/08/02 00:52:54;;;;;;;;;;;;;;;29.88;39.90;100517.83;105333;1300;61249;-81
2022/08/02 00:55:20;;;;;;;;;;;;;;;29.88;39.96;100522.56;105256;1299;61367;-81
2022/08/02 00:57:46;;;;;;;;;;;;;;;29.88;40.02;100527.45;105284;1300;61463;-81
2022/08/02 01:00:12;;;;;;;;;;;;;;;29.88;40.08;100526.45;105236;1300;61315;-81
2022/08/02 01:02:38;;;;;;;;;;;;;;;29.87;40.00;100524.69;105287;1299;61272;-81
2022/08/02 01:05:03;;;;;;;;;;;;;;;29.87;39.94;100529.04;105413;1300;61253;-81
2022/08/02 01:07:29;;;;;;;;;;;;;;;29.87;39.91;100529.17;105387;1300;71677;-81
2022/08/02 01:09:54;;;;;;;;;;;;;;;29.87;39.95;100527.73;105365;1300;61294;-81
2022/08/02 01:12:20;;;;;;;;;;;;;;;29.87;40.07;100526.11;105335;1299;61223;-81
2022/08/02 01:14:47;;;;;;;;;;;;;;;29.87;40.03;100527.02;105262;1300;61284;-81
2022/08/02 01:17:15;;;;;;;;;;;;;;;29.87;39.99;100529.24;105371;1300;61341;-81
2022/08/02 01:19:56;;;;;;;;;;;;;;;29.87;40.13;100528.16;105272;1299;61229;-81
2022/08/02 01:22:37;;;;;;;;;;;;;;;29.87;39.96;100523.84;105304;1300;62120;-81
2022/08/02 01:25:07;;;;;;;;;;;;;;;29.86;40.10;100522.95;105355;1299;61159;-81
2022/08/02 01:27:33;;;;;;;;;;;;;;;29.86;40.02;100523.48;105309;1300;73624;-81
2022/08/02 01:29:59;;;;;;;;;;;;;;;29.86;39.98;100518.42;105353;1300;61345;-81
2022/08/02 01:32:28;;;;;;;;;;;;;;;29.87;39.86;100516.75;105282;1300;61405;-81
2022/08/02 01:34:58;;;;;;;;;;;;;;;29.86;40.03;100516.07;105197;1300;61298;-81
2022/08/02 01:37:31;;;;;;;;;;;;;;;29.87;39.95;100514.41;105355;1300;73929;-81
2022/08/02 01:40:00;;;;;;;;;;;;;;;29.86;40.11;100515.05;105288;1300;74882;-81
2022/08/02 01:42:26;;;;;;;;;;;;;;;29.86;39.95;100514.30;105257;1300;62494;-81
2022/08/02 01:44:51;;;;;;;;;;;;;;;29.86;39.74;100515.04;105273;1300;61300;-79
2022/08/02 01:47:17;;;;;;;;;;;;;;;29.85;40.09;100515.79;105338;1300;61274;-79
2022/08/02 01:49:44;;;;;;;;;;;;;;;29.85;39.83;100516.34;105278;1299;61358;-80
2022/08/02 01:52:22;;;;;;;;;;;;;;;29.85;39.84;100519.60;105286;1299;61268;-80
2022/08/02 01:54:58;;;;;;;;;;;;;;;29.85;39.90;100520.17;105361;1300;61344;-80
2022/08/02 01:57:23;;;;;;;;;;;;;;;29.85;39.94;100521.64;105276;1298;72869;-80
2022/08/02 01:59:49;;;;;;;;;;;;;;;29.85;39.86;100525.98;105310;1300;61315;-80
2022/08/02 02:02:14;;;;;;;;;;;;;;;29.84;39.87;100523.34;105373;1300;61274;-80
2022/08/02 02:04:40;;;;;;;;;;;;;;;29.85;39.85;100530.04;105249;1300;61342;-80
2022/08/02 02:07:05;;;;;;;;;;;;;;;29.85;39.71;100532.38;105309;1300;61304;-80
2022/08/02 02:09:34;;;;;;;;;;;;;;;29.84;39.95;100530.78;105287;1299;72523;-80
2022/08/02 02:12:00;;;;;;;;;;;;;;;29.84;40.05;100532.82;105239;1300;73793;-80
2022/08/02 02:14:25;;;;;;;;;;;;;;;29.84;39.89;100526.84;105311;1300;61252;-80
2022/08/02 02:16:51;;;;;;;;;;;;;;;29.84;39.78;100526.33;105292;1297;61250;-80
2022/08/02 02:19:17;;;;;;;;;;;;;;;29.84;39.95;100524.16;105361;1298;61249;-80
2022/08/02 02:21:43;;;;;;;;;;;;;;;29.83;39.73;100523.27;105183;1300;61373;-80
2022/08/02 02:24:09;;;;;;;;;;;;;;;29.83;39.91;100528.55;105271;1300;61347;-80
2022/08/02 02:26:34;;;;;;;;;;;;;;;29.83;40.01;100528.38;105344;1300;61316;-80
2022/08/02 02:29:03;;;;;;;;;;;;;;;29.83;39.89;100533.52;105272;1300;61304;-80
2022/08/02 02:31:31;;;;;;;;;;;;;;;29.83;40.01;100533.52;105346;1300;72795;-80
2022/08/02 02:33:58;;;;;;;;;;;;;;;29.83;39.82;100533.16;105361;1299;74640;-80
2022/08/02 02:36:24;;;;;;;;;;;;;;;29.82;39.78;100533.55;105346;1298;61139;-80
2022/08/02 02:38:49;;;;;;;;;;;;;;;29.82;39.82;100534.29;105249;1299;61288;-80
2022/08/02 02:41:15;;;;;;;;;;;;;;;29.82;39.85;100533.27;105198;1300;61224;-80
2022/08/02 02:43:40;;;;;;;;;;;;;;;29.82;39.85;100530.89;105290;1300;61269;-80
2022/08/02 02:46:06;;;;;;;;;;;;;;;29.82;39.77;100530.88;105356;1300;61287;-80
2022/08/02 02:48:31;;;;;;;;;;;;;;;29.81;40.12;100528.40;105203;1300;61227;-80
2022/08/02 02:50:57;;;;;;;;;;;;;;;29.81;39.95;100532.55;105296;1300;61357;-80
2022/08/02 02:53:23;;;;;;;;;;;;;;;29.81;39.88;100530.42;105287;1300;61301;-80
2022/08/02 02:55:48;;;;;;;;;;;;;;;29.81;40.08;100528.74;105330;1299;61296;-80
2022/08/02 02:58:14;;;;;;;;;;;;;;;29.81;39.96;100529.36;105315;1300;61352;-80
2022/08/02 03:03:23;;;;;;;;;;;;;;;29.81;40.10;100534.30;105267;1298;61355;-80
2022/08/02 03:05:49;;;;;;;;;;;;;;;29.81;39.95;100536.81;105315;1299;61246;-80
2022/08/02 03:08:14;;;;;;;;;;;;;;;29.80;39.78;100541.77;105287;1300;61254;-80
2022/08/02 03:10:41;;;;;;;;;;;;;;;29.80;39.91;100548.14;105303;1300;61421;-80
2022/08/02 03:13:06;;;;;;;;;;;;;;;29.80;39.92;100547.58;105328;1299;61245;-79
2022/08/02 03:15:33;;;;;;;;;;;;;;;29.80;39.96;100551.02;105262;1300;61371;-79
2022/08/02 03:17:58;;;;;;;;;;;;;;;29.80;39.90;100552.33;105240;1299;59327;-79
2022/08/02 03:20:24;;;;;;;;;;;;;;;29.80;39.96;100553.79;105233;1300;61486;-79
2022/08/02 03:22:49;;;;;;;;;;;;;;;29.79;39.90;100554.93;105284;1300;61243;-79
2022/08/02 03:25:15;;;;;;;;;;;;;;;29.80;39.91;100559.23;105236;1300;61392;-79
2022/08/02 03:27:41;;;;;;;;;;;;;;;29.80;39.88;100559.25;105264;1299;59780;-79
2022/08/02 03:30:07;;;;;;;;;;;;;;;29.80;39.87;100561.77;105275;1298;61183;-79
2022/08/02 03:32:34;;;;;;;;;;;;;;;29.80;39.98;100561.77;105284;1300;61255;-79
2022/08/02 03:34:59;;;;;;;;;;;;;;;29.80;39.97;100560.73;105257;1300;61271;-79
2022/08/02 03:37:25;;;;;;;;;;;;;;;29.80;40.01;100558.54;105343;1300;61272;-79
2022/08/02 03:39:50;;;;;;;;;;;;;;;29.80;40.02;100561.37;105272;1300;61220;-79
2022/08/02 03:42:16;;;;;;;;;;;;;;;29.80;39.91;100559.39;105341;1300;61290;-79
2022/08/02 03:44:41;;;;;;;;;;;;;;;29.79;39.93;100559.63;105278;1300;61744;-79
2022/08/02 03:47:07;;;;;;;;;;;;;;;29.80;39.66;100558.91;105312;1300;61257;-79
2022/08/02 03:49:33;;;;;;;;;;;;;;;29.80;39.95;100558.54;105379;1299;61396;-79
2022/08/02 03:51:58;;;;;;;;;;;;;;;29.80;39.89;100561.05;105274;1300;74852;-79
2022/08/02 03:54:24;;;;;;;;;;;;;;;29.79;39.96;100565.11;105271;1300;61309;-79
2022/08/02 03:56:49;;;;;;;;;;;;;;;29.80;39.96;100573.72;105237;1299;61217;-79
2022/08/02 03:59:15;;;;;;;;;;;;;;;29.80;39.82;100574.98;105321;1298;61246;-79
2022/08/02 04:01:40;;;;;;;;;;;;;;;29.80;39.78;100578.44;105359;1300;61390;-79
2022/08/02 04:04:06;;;;;;;;;;;;;;;29.80;39.86;100584.80;105258;1300;74840;-79
2022/08/02 04:06:31;;;;;;;;;;;;;;;29.80;39.81;100583.34;105315;1300;61384;-79
2022/08/02 04:08:57;;;;;;;;;;;;;;;29.80;39.56;100585.71;105284;1300;61216;-80
2022/08/02 04:11:31;;;;;;;;;;;;;;;29.80;39.64;100594.38;105370;1299;61239;-80
2022/08/02 04:14:04;;;;;;;;;;;;;;;29.80;39.73;100598.58;105365;1298;72510;-80
2022/08/02 04:16:36;;;;;;;;;;;;;;;29.80;39.87;100597.69;105256;1299;75722;-80
2022/08/02 04:19:02;;;;;;;;;;;;;;;29.80;39.65;100603.44;105261;1298;61109;-80
2022/08/02 04:21:30;;;;;;;;;;;;;;;29.80;39.88;100603.84;105270;1300;61264;-80
2022/08/02 04:23:55;;;;;;;;;;;;;;;29.80;39.78;100608.34;105330;1298;73837;-80
2022/08/02 04:26:21;;;;;;;;;;;;;;;29.79;39.70;100608.30;105279;1300;61412;-80
2022/08/02 04:28:47;;;;;;;;;;;;;;;29.76;39.86;100606.94;105277;1299;61251;-80
2022/08/02 04:31:13;;;;;;;;;;;;;;;29.72;39.84;100608.34;105302;1300;61259;-80
2022/08/02 04:33:38;;;;;;;;;;;;;;;29.67;39.79;100607.67;105229;1300;61275;-80
2022/08/02 04:36:04;;;;;;;;;;;;;;;29.61;39.68;100607.04;105410;1299;61243;-80
2022/08/02 04:38:30;;;;;;;;;;;;;;;29.58;39.82;100606.11;105270;1300;75837;-80
2022/08/02 04:40:55;;;;;;;;;;;;;;;29.55;39.79;100608.59;105373;1299;61225;-80
2022/08/02 04:43:21;;;;;;;;;;;;;;;29.53;39.91;100607.13;105254;1300;61293;-80
2022/08/02 04:45:51;;;;;;;;;;;;;;;29.52;39.88;100608.08;105362;1299;61210;-80
2022/08/02 04:48:16;;;;;;;;;;;;;;;29.51;39.83;100606.90;105272;1299;75513;-80
2022/08/02 04:50:42;;;;;;;;;;;;;;;29.49;39.86;100613.45;105393;1300;61252;-80
2022/08/02 04:53:07;;;;;;;;;;;;;;;29.47;39.75;100616.75;105196;1299;61291;-80
2022/08/02 04:55:33;;;;;;;;;;;;;;;29.46;39.85;100619.61;105162;1300;61274;-80
2022/08/02 04:57:58;;;;;;;;;;;;;;;29.45;39.90;100620.39;105119;1300;59507;-80
2022/08/02 05:00:25;;;;;;;;;;;;;;;29.44;39.85;100617.56;105208;1300;75671;-80
2022/08/02 05:02:54;;;;;;;;;;;;;;;29.44;39.53;100618.69;105078;1298;61364;-80
2022/08/02 05:05:20;;;;;;;;;;;;;;;29.42;39.62;100625.73;105187;1300;61301;-80
2022/08/02 05:07:45;;;;;;;;;;;;;;;29.42;39.82;100625.22;105193;1300;61342;-80
2022/08/02 05:10:10;;;;;;;;;;;;;;;29.42;39.65;100623.27;105193;1300;61362;-80
2022/08/02 05:12:36;;;;;;;;;;;;;;;29.41;39.61;100622.38;105185;1299;61356;-80
2022/08/02 05:15:02;;;;;;;;;;;;;;;29.41;39.74;100623.52;105310;1299;61392;-80
2022/08/02 05:17:32;;;;;;;;;;;;;;;29.40;39.40;100627.40;105285;1298;61271;-80
2022/08/02 05:19:58;;;;;;;;;;;;;;;29.40;39.63;100627.42;105191;1300;61281;-80
2022/08/02 05:22:23;;;;;;;;;;;;;;;29.41;39.57;100634.76;105242;1300;61275;-80
2022/08/02 05:24:49;;;;;;;;;;;;;;;29.40;39.58;100639.15;105213;1300;61357;-80
2022/08/02 05:27:14;;;;;;;;;;;;;;;29.40;39.57;100641.80;105173;1300;61282;-80
2022/08/02 05:29:41;;;;;;;;;;;;;;;29.38;39.43;100642.48;105119;1299;61228;-80
2022/08/02 05:32:06;;;;;;;;;;;;;;;29.38;39.40;100639.80;105101;1299;61381;-80
2022/08/02 05:34:32;;;;;;;;;;;;;;;29.36;39.52;100640.55;105192;1300;61274;-80
2022/08/02 05:36:57;;;;;;;;;;;;;;;29.35;39.44;100645.95;105234;1300;61271;-80
2022/08/02 05:39:23;;;;;;;;;;;;;;;29.35;39.37;100647.40;105288;1299;61350;-80
2022/08/02 05:41:49;;;;;;;;;;;;;;;29.35;39.45;100647.23;105248;1299;61460;-80
2022/08/02 05:44:15;;;;;;;;;;;;;;;29.34;39.46;100648.23;105324;1299;61253;-80
2022/08/02 05:46:40;;;;;;;;;;;;;;;29.34;39.21;100646.62;105261;1300;61353;-80
2022/08/02 05:49:05;;;;;;;;;;;;;;;29.33;39.45;100649.48;105255;1300;61220;-80
2022/08/02 05:51:38;;;;;;;;;;;;;;;29.32;39.37;100650.26;105345;1300;61219;-80
2022/08/02 05:54:11;;;;;;;;;;;;;;;29.31;39.29;100653.07;105205;1300;61458;-80
2022/08/02 05:56:55;;;;;;;;;;;;;;;29.30;39.38;100654.35;105226;1300;72973;-80
2022/08/02 05:59:39;;;;;;;;;;;;;;;29.29;39.22;100656.44;105290;1300;74748;-80
2022/08/02 06:02:10;;;;;;;;;;;;;;;29.28;39.26;100653.78;105263;1299;61313;-80
2022/08/02 06:04:41;;;;;;;;;;;;;;;29.29;39.04;100656.06;105164;1300;62316;-80
2022/08/02 06:07:07;;;;;;;;;;;;;;;29.29;39.22;100659.49;105225;1299;74015;-80
2022/08/02 06:09:32;;;;;;;;;;;;;;;29.28;39.14;100659.80;105125;1300;61362;-80
2022/08/02 06:11:58;;;;;;;;;;;;;;;29.26;39.20;100660.65;105095;1300;61490;-80
2022/08/02 06:14:23;;;;;;;;;;;;;;;29.27;39.17;100666.73;105025;1300;61294;-80
2022/08/02 06:16:49;;;;;;;;;;;;;;;29.26;39.14;100667.38;105161;1300;61336;-80
2022/08/02 06:19:14;;;;;;;;;;;;;;;29.25;39.11;100665.68;105168;1299;73122;-80
2022/08/02 06:21:40;;;;;;;;;;;;;;;29.24;38.91;100671.52;105176;1300;61309;-80
2022/08/02 06:24:07;;;;;;;;;;;;;;;29.23;38.95;100671.98;105267;1300;61338;-80
2022/08/02 06:26:33;;;;;;;;;;;;;;;29.22;39.11;100675.08;105141;1299;61313;-80
2022/08/02 06:28:58;;;;;;;;;;;;;;;29.21;39.21;100675.62;104768;1299;637296;-80
2022/08/02 06:31:24;;;;;;;;;;;;;;;29.22;39.09;100675.77;105023;1300;61368;-80
2022/08/02 06:33:49;;;;;;;;;;;;;;;29.21;39.06;100675.11;104996;1299;62276;-80
2022/08/02 06:36:18;;;;;;;;;;;;;;;29.21;38.91;100678.00;104972;1300;61061;-80
2022/08/02 06:38:54;;;;;;;;;;;;;;;29.22;39.09;100680.11;105117;1299;61128;-80
2022/08/02 06:41:20;;;;;;;;;;;;;;;29.23;39.09;100679.64;105142;1299;72878;-80
2022/08/02 06:43:50;;;;;;;;;;;;;;;29.25;39.05;100676.55;105087;1300;59401;-80
2022/08/02 06:46:15;;;;;;;;;;;;;;;29.25;39.12;100671.41;105052;1299;61484;-80
2022/08/02 06:48:41;;;;;;;;;;;;;;;29.27;39.20;100672.38;105008;1300;61397;-80
2022/08/02 06:51:06;;;;;;;;;;;;;;;29.28;39.06;100669.04;105177;1299;62542;-80
2022/08/02 06:53:32;;;;;;;;;;;;;;;29.27;39.06;100669.45;105071;1300;61236;-80
2022/08/02 06:55:57;;;;;;;;;;;;;;;29.27;39.10;100673.13;105111;1300;61451;-80
2022/08/02 06:58:23;;;;;;;;;;;;;;;29.28;39.17;100671.89;105295;1299;61277;-80
2022/08/02 07:00:48;;;;;;;;;;;;;;;29.28;38.99;100668.33;105208;1300;59960;-80
2022/08/02 07:03:14;;;;;;;;;;;;;;;29.29;38.99;100666.97;105247;1298;61367;-80
2022/08/02 07:05:40;;;;;;;;;;;;;;;29.28;39.15;100668.45;105228;1299;61275;-80
2022/08/02 07:08:06;;;;;;;;;;;;;;;29.29;39.16;100671.66;105141;1300;61393;-80
2022/08/02 07:10:31;;;;;;;;;;;;;;;29.29;39.09;100670.95;105205;1299;61273;-80
2022/08/02 07:12:57;;;;;;;;;;;;;;;29.28;39.08;100669.00;105173;1300;63014;-80
2022/08/02 07:15:22;;;;;;;;;;;;;;;29.29;39.01;100671.48;105210;1299;61255;-80
2022/08/02 07:17:48;;;;;;;;;;;;;;;29.28;38.95;100671.96;105189;1299;61273;-80
2022/08/02 07:20:13;;;;;;;;;;;;;;;29.28;39.09;100671.15;105198;1300;61275;-80
2022/08/02 07:22:40;;;;;;;;;;;;;;;29.28;39.15;100670.23;105220;1300;61304;-80
2022/08/02 07:25:05;;;;;;;;;;;;;;;29.29;39.10;100670.75;105186;1300;61234;-80
2022/08/02 07:27:32;;;;;;;;;;;;;;;29.29;38.94;100669.59;105216;1300;61161;-80
2022/08/02 07:29:58;;;;;;;;;;;;;;;29.29;38.75;100665.64;105126;1300;61413;-80
2022/08/02 07:32:26;;;;;;;;;;;;;;;29.29;38.89;100665.27;105111;1301;61647;-80
2022/08/02 07:34:51;;;;;;;;;;;;;;;29.31;39.00;100668.40;105218;1299;61460;-80
2022/08/02 07:37:17;;;;;;;;;;;;;;;29.31;38.80;100666.73;105197;1299;61307;-80
2022/08/02 07:39:43;;;;;;;;;;;;;;;29.31;38.91;100669.05;105179;1300;61266;-80
2022/08/02 07:42:09;;;;;;;;;;;;;;;29.32;38.65;100665.69;105304;1299;61260;-80
2022/08/02 07:44:34;;;;;;;;;;;;;;;29.32;38.85;100661.46;105296;1298;61272;-80
2022/08/02 07:47:01;;;;;;;;;;;;;;;29.32;38.84;100662.02;105204;1298;61880;-80
2022/08/02 07:49:27;;;;;;;;;;;;;;;29.33;38.93;100661.34;105228;1299;61381;-80
2022/08/02 07:51:52;;;;;;;;;;;;;;;29.34;38.85;100662.57;105168;1299;74588;-80
2022/08/02 07:54:19;;;;;;;;;;;;;;;29.33;38.79;100663.73;105204;1299;61359;-80
2022/08/02 07:56:45;;;;;;;;;;;;;;;29.31;38.80;100662.01;105178;1300;61246;-80
2022/08/02 07:59:10;;;;;;;;;;;;;;;29.31;38.63;100661.46;105303;1300;61361;-80
2022/08/02 08:01:36;;;;;;;;;;;;;;;29.31;38.82;100662.17;105176;1300;61227;-80
2022/08/02 08:04:02;;;;;;;;;;;;;;;29.31;38.59;100665.23;105282;1299;61381;-80
2022/08/02 08:06:28;;;;;;;;;;;;;;;29.31;38.59;100667.98;105143;1299;61166;-80
2022/08/02 08:08:54;;;;;;;;;;;;;;;29.29;38.53;100668.33;105085;1300;61347;-80
2022/08/02 08:11:19;;;;;;;;;;;;;;;29.29;38.34;100665.09;105102;1298;73694;-80
2022/08/02 08:13:46;;;;;;;;;;;;;;;29.30;38.44;100669.57;105209;1299;61502;-79
2022/08/02 08:16:11;;;;;;;;;;;;;;;29.30;38.50;100668.02;105244;1299;61262;-80
2022/08/02 08:18:37;;;;;;;;;;;;;;;29.31;38.49;100667.27;105273;1299;61924;-80
2022/08/02 08:21:02;;;;;;;;;;;;;;;29.31;38.30;100666.30;105196;1299;61242;-80
2022/08/02 08:23:28;;;;;;;;;;;;;;;29.32;38.61;100666.77;105257;1299;61361;-81
2022/08/02 08:25:53;;;;;;;;;;;;;;;29.33;38.43;100668.11;105118;1299;74608;-80
2022/08/02 08:28:19;;;;;;;;;;;;;;;29.34;38.45;100663.34;105074;1300;61246;-81
2022/08/02 08:30:46;;;;;;;;;;;;;;;29.35;38.35;100666.09;105064;1300;61275;-80
2022/08/02 08:33:11;;;;;;;;;;;;;;;29.36;38.51;100664.02;105125;1299;61287;-80
2022/08/02 08:35:38;;;;;;;;;;;;;;;29.37;38.37;100663.73;105271;1299;61952;-80
2022/08/02 08:38:03;;;;;;;;;;;;;;;29.38;38.23;100663.96;105055;1300;61250;-80
2022/08/02 08:40:29;;;;;;;;;;;;;;;29.37;38.27;100662.90;105192;1299;61229;-80
2022/08/02 08:42:55;;;;;;;;;;;;;;;29.38;38.15;100664.95;105151;1300;61335;-80
2022/08/02 08:45:21;;;;;;;;;;;;;;;29.39;38.03;100664.36;105051;1298;72619;-80
2022/08/02 08:47:50;;;;;;;;;;;;;;;29.39;38.28;100659.78;105109;1300;74824;-80
2022/08/02 08:50:16;;;;;;;;;;;;;;;29.39;38.15;100659.44;105195;1300;61455;-80
2022/08/02 08:52:42;;;;;;;;;;;;;;;29.39;38.11;100661.04;105218;1299;61271;-80
2022/08/02 08:55:08;;;;;;;;;;;;;;;29.40;37.94;100656.83;105225;1299;61288;-80
2022/08/02 08:57:34;;;;;;;;;;;;;;;29.40;38.01;100656.63;105218;1299;61169;-79
2022/08/02 08:59:59;;;;;;;;;;;;;;;29.40;37.91;100656.08;105206;1300;61262;-80
2022/08/02 09:02:24;;;;;;;;;;;;;;;29.40;37.90;100656.08;105181;1300;61293;-80
2022/08/02 09:04:50;;;;;;;;;;;;;;;29.40;38.06;100652.23;105239;1300;61300;-80
2022/08/02 09:07:16;;;;;;;;;;;;;;;29.41;37.87;100651.12;105072;1299;74231;-80
2022/08/02 09:09:41;;;;;;;;;;;;;;;29.41;37.81;100649.24;105092;1299;61317;-80
2022/08/02 09:12:16;;;;;;;;;;;;;;;29.41;37.77;100648.50;105172;1300;61313;-80
2022/08/02 09:14:42;;;;;;;;;;;;;;;29.42;37.91;100651.14;105150;1300;61254;-80
2022/08/02 09:17:08;;;;;;;;;;;;;;;29.43;37.87;100645.81;105000;1300;61342;-80
2022/08/02 09:19:35;;;;;;;;;;;;;;;29.44;37.77;100644.76;105041;1299;61380;-80
2022/08/02 09:22:03;;;;;;;;;;;;;;;29.45;37.68;100642.11;105025;1300;61124;-80
2022/08/02 09:24:30;;;;;;;;;;;;;;;29.45;37.95;100638.30;105114;1300;61565;-80
2022/08/02 09:26:55;;;;;;;;;;;;;;;29.46;37.62;100638.61;105073;1300;61301;-80
2022/08/02 09:29:22;;;;;;;;;;;;;;;29.46;37.57;100633.17;105138;1299;61274;-80
2022/08/02 09:31:47;;;;;;;;;;;;;;;29.46;37.51;100630.29;105109;1300;61335;-80
2022/08/02 09:34:13;;;;;;;;;;;;;;;29.46;37.58;100629.23;105141;1300;61268;-80
2022/08/02 09:36:40;;;;;;;;;;;;;;;29.46;37.28;100630.59;105246;1300;61648;-80
2022/08/02 09:39:07;;;;;;;;;;;;;;;29.46;37.43;100631.91;105156;1299;61339;-80
2022/08/02 09:41:34;;;;;;;;;;;;;;;29.45;37.32;100629.80;105211;1299;59702;-80
2022/08/02 09:44:00;;;;;;;;;;;;;;;29.45;37.31;100635.66;105060;1300;61326;-81
2022/08/02 09:46:29;;;;;;;;;;;;;;;29.44;37.19;100637.86;105070;1299;61247;-80
2022/08/02 09:49:01;;;;;;;;;;;;;;;29.44;37.11;100635.34;105173;1298;74948;-80
2022/08/02 09:51:31;;;;;;;;;;;;;;;29.44;37.17;100638.61;105035;1299;61259;-80
2022/08/02 09:53:57;;;;;;;;;;;;;;;29.44;37.28;100630.66;105213;1299;61221;-80
2022/08/02 09:56:23;;;;;;;;;;;;;;;29.44;37.03;100627.94;105137;1299;61329;-80
2022/08/02 09:58:51;;;;;;;;;;;;;;;29.45;37.09;100626.79;105345;1299;61296;-80
2022/08/02 10:01:17;;;;;;;;;;;;;;;29.46;36.92;100628.48;105116;1300;61552;-80
2022/08/02 10:03:55;;;;;;;;;;;;;;;29.45;36.87;100631.77;105118;1298;61438;-80
2022/08/02 10:06:21;;;;;;;;;;;;;;;29.44;36.68;100631.90;105093;1300;72208;-80
2022/08/02 10:08:47;;;;;;;;;;;;;;;29.44;36.82;100625.26;105120;1300;61232;-81
2022/08/02 10:11:13;;;;;;;;;;;;;;;29.43;36.55;100625.66;105051;1300;61685;-80
2022/08/02 10:13:38;;;;;;;;;;;;;;;29.43;36.75;100624.95;105150;1300;59750;-80
2022/08/02 10:16:05;;;;;;;;;;;;;;;29.44;36.65;100621.20;104998;1300;61240;-80
2022/08/02 10:18:30;;;;;;;;;;;;;;;29.45;36.49;100620.92;105096;1299;73553;-80
2022/08/02 10:20:56;;;;;;;;;;;;;;;29.47;36.73;100615.51;105087;1300;61386;-79
2022/08/02 10:23:24;;;;;;;;;;;;;;;29.48;36.76;100614.04;105275;1298;61372;-80
2022/08/02 10:25:50;;;;;;;;;;;;;;;29.49;36.84;100609.23;105152;1300;61238;-80
2022/08/02 10:28:17;;;;;;;;;;;;;;;29.50;36.84;100611.11;105150;1300;61308;-80
2022/08/02 10:30:44;;;;;;;;;;;;;;;29.51;36.77;100617.89;105191;1300;61423;-80
2022/08/02 10:33:09;;;;;;;;;;;;;;;29.52;36.75;100619.02;105041;1300;62104;-80
2022/08/02 10:35:36;;;;;;;;;;;;;;;29.53;36.61;100621.28;105149;1299;61336;-80
2022/08/02 10:38:06;;;;;;;;;;;;;;;29.54;36.63;100619.16;104998;1300;60027;-80
2022/08/02 10:40:45;;;;;;;;;;;;;;;29.56;36.57;100610.50;105085;1300;75764;-80
2022/08/02 10:43:10;;;;;;;;;;;;;;;29.56;36.66;100611.33;105082;1300;59729;-80
2022/08/02 10:45:36;;;;;;;;;;;;;;;29.57;36.80;100608.32;105125;1300;61329;-80
2022/08/02 10:48:13;;;;;;;;;;;;;;;29.58;36.72;100611.86;105178;1300;59811;-80
2022/08/02 10:51:05;;;;;;;;;;;;;;;29.59;36.91;100609.20;105152;1299;75761;-80
2022/08/02 10:53:31;;;;;;;;;;;;;;;29.59;36.87;100601.27;104657;1304;61270;-80
2022/08/02 10:56:01;;;;;;;;;;;;;;;29.59;36.60;100599.58;104872;1305;59852;-80
2022/08/02 10:58:28;;;;;;;;;;;;;;;29.60;36.76;100601.86;105233;1305;72683;-80
2022/08/02 11:00:53;;;;;;;;;;;;;;;29.62;36.70;100599.91;105162;1306;75797;-80
2022/08/02 11:03:28;;;;;;;;;;;;;;;29.62;36.87;100600.20;104551;1305;61276;-80
2022/08/02 11:06:23;;;;;;;;;;;;;;;29.63;36.77;100595.57;104814;1305;61604;-80
2022/08/02 11:08:48;;;;;;;;;;;;;;;29.64;37.07;100597.11;104678;1305;73810;-80
2022/08/02 11:11:15;;;;;;;;;;;;;;;29.65;36.96;100597.03;104625;1305;61303;-80
2022/08/02 11:13:58;;;;;;;;;;;;;;;29.65;36.92;100592.06;104575;1305;59326;-80
2022/08/02 11:16:35;;;;;;;;;;;;;;;29.66;36.88;100588.72;104603;1305;61576;-80
2022/08/02 11:19:01;;;;;;;;;;;;;;;29.66;37.13;100586.72;104676;1303;72628;-80
2022/08/02 11:21:33;;;;;;;;;;;;;;;29.66;36.98;100581.79;104679;1304;61364;-80
2022/08/02 11:24:18;;;;;;;;;;;;;;;29.66;36.89;100584.00;104826;1304;61460;-80
2022/08/02 11:26:44;;;;;;;;;;;;;;;29.67;36.93;100586.99;104808;1303;61144;-80
2022/08/02 11:29:09;;;;;;;;;;;;;;;29.67;36.98;100584.63;104712;1303;61228;-80
2022/08/02 11:31:39;;;;;;;;;;;;;;;29.67;36.94;100584.77;105096;1300;61287;-80
2022/08/02 11:34:05;;;;;;;;;;;;;;;29.67;36.77;100580.06;105194;1299;61292;-80
2022/08/02 11:36:31;;;;;;;;;;;;;;;29.67;36.91;100575.73;105277;1300;61265;-80
2022/08/02 11:39:10;;;;;;;;;;;;;;;29.67;36.91;100572.48;105250;1300;61288;-80
2022/08/02 11:41:35;;;;;;;;;;;;;;;29.66;36.95;100572.51;105097;1300;73633;-80
2022/08/02 11:44:01;;;;;;;;;;;;;;;29.66;36.92;100570.57;105281;1299;61280;-81
2022/08/02 11:46:26;;;;;;;;;;;;;;;29.66;36.82;100568.25;105107;1299;61282;-80
2022/08/02 11:48:52;;;;;;;;;;;;;;;29.65;36.78;100566.63;105065;1299;59852;-80
2022/08/02 11:51:17;;;;;;;;;;;;;;;29.65;36.81;100570.67;105176;1299;61275;-80
2022/08/02 11:53:48;;;;;;;;;;;;;;;29.66;36.90;100564.98;105226;1300;76935;-80
2022/08/02 11:56:14;;;;;;;;;;;;;;;29.65;36.90;100565.78;105183;1299;61243;-80
2022/08/02 11:58:39;;;;;;;;;;;;;;;29.66;36.88;100566.25;105241;1298;59777;-79
2022/08/02 12:01:05;;;;;;;;;;;;;;;29.65;36.81;100562.65;105068;1299;61731;-79
2022/08/02 12:03:37;;;;;;;;;;;;;;;29.66;36.77;100562.81;104955;1299;59869;-79
2022/08/02 12:06:04;;;;;;;;;;;;;;;29.65;36.80;100565.36;106099;1298;59680;-79
2022/08/02 12:08:30;;;;;;;;;;;;;;;29.66;36.63;100560.81;105193;1300;61323;-80
2022/08/02 12:10:55;;;;;;;;;;;;;;;29.66;36.85;100556.36;105232;1300;61318;-79
2022/08/02 12:13:21;;;;;;;;;;;;;;;29.67;36.77;100559.77;105298;1298;61362;-79
2022/08/02 12:15:47;;;;;;;;;;;;;;;29.68;36.76;100561.33;105264;1300;61403;-79
2022/08/02 12:20:57;;;;;;;;;;;;;;;29.68;36.71;100568.02;104882;1300;71403;-79
2022/08/02 12:23:23;;;;;;;;;;;;;;;29.68;36.43;100567.14;104998;1299;61264;-80
2022/08/02 12:25:58;;;;;;;;;;;;;;;29.68;36.64;100564.21;105108;1300;62002;-80
2022/08/02 12:28:25;;;;;;;;;;;;;;;29.67;36.52;100560.07;105135;1300;62584;-80
2022/08/02 12:30:59;;;;;;;;;;;;;;;29.68;36.57;100559.48;105188;1300;73775;-80